PWSweather.com
Personal Weather Stations
Station Observations
KGAROSWE1
Roswell (historic Mill Village), Roswell, GA 30075

Roswell (historic Mill Village)Roswell, GA 30075

Lat: 34.014545, Lon: -84.358498

Elevation: 1025

Station Type: Davis Vantage Vue

http://www.roswellweather.net

High Low Average
Temperature 84.8°F29.3°F 65.8°F18.8°F 71.5°F21.9°F
Dew Point 72.6°F22.6°F 64.2°F17.9°F 67.7°F19.8°F
Winds 3.0 mph NW4.8 mph NW Calm Calm 0.1 mph 0.2 mph
Wind Gusts 7.0 mph11.3 mph -- 0.6 mph1.0 mph
Humidity 100% 61% 89%
Pressure 30.22 in1023.40 in 30.10 in1019.30 in -
Precipitation 2.13 in54.10 in - -
Hour Temp Dew Point Humidity Winds Wind Gusts Pressure Precip Precip Rate Daily Precip Total
12:00 AM 70.2°F21.2°C 65.1°F18.4°C 84% 3.0 mph NW4.8 kmh NW 5.0 mph8.0 kmh 30.20 in1022.7 mb 0.00 in0.0 mm 0.00 in0.0 mm 0.00 in0.0 mm
12:08 AM 69.7°F20.9°C 64.7°F18.2°C 84% Calm Calm 1.0 mph1.6 kmh 30.20 in1022.7 mb 0.00 in0.0 mm 0.00 in0.0 mm 0.00 in0.0 mm
12:16 AM 69.3°F20.7°C 64.6°F18.1°C 85% Calm Calm 3.0 mph4.8 kmh 30.19 in1022.4 mb 0.00 in0.0 mm 0.00 in0.0 mm 0.00 in0.0 mm
12:24 AM 68.9°F20.5°C 64.2°F17.9°C 85% Calm Calm 1.0 mph1.6 kmh 30.19 in1022.4 mb 0.00 in0.0 mm 0.00 in0.0 mm 0.00 in0.0 mm
12:32 AM 68.5°F20.3°C 64.2°F17.9°C 86% Calm Calm 1.0 mph1.6 kmh 30.20 in1022.7 mb 0.00 in0.0 mm 0.00 in0.0 mm 0.00 in0.0 mm
12:40 AM 68.3°F20.2°C 64.3°F17.9°C 87% 1.0 mph WSW1.6 kmh WSW 1.0 mph1.6 kmh 30.21 in1023.0 mb 0.00 in0.0 mm 0.00 in0.0 mm 0.00 in0.0 mm
12:48 AM 68.2°F20.1°C 64.2°F17.9°C 87% Calm Calm 1.0 mph1.6 kmh 30.21 in1023.0 mb 0.00 in0.0 mm 0.00 in0.0 mm 0.00 in0.0 mm
12:56 AM 68.1°F20.1°C 64.4°F18.0°C 88% 1.0 mph NW1.6 kmh NW 2.0 mph3.2 kmh 30.22 in1023.4 mb 0.00 in0.0 mm 0.00 in0.0 mm 0.00 in0.0 mm
01:04 AM 68.1°F20.1°C 64.4°F18.0°C 88% Calm Calm 3.0 mph4.8 kmh 30.21 in1023.0 mb 0.00 in0.0 mm 0.00 in0.0 mm 0.00 in0.0 mm
01:12 AM 67.9°F19.9°C 64.2°F17.9°C 88% Calm Calm 1.0 mph1.6 kmh 30.20 in1022.7 mb 0.00 in0.0 mm 0.00 in0.0 mm 0.00 in0.0 mm
01:20 AM 67.8°F19.9°C 64.4°F18.0°C 89% Calm Calm 4.0 mph6.4 kmh 30.20 in1022.7 mb 0.00 in0.0 mm 0.00 in0.0 mm 0.00 in0.0 mm
01:28 AM 67.6°F19.8°C 64.6°F18.1°C 90% Calm Calm 3.0 mph4.8 kmh 30.20 in1022.7 mb 0.00 in0.0 mm 0.00 in0.0 mm 0.00 in0.0 mm
01:36 AM 67.1°F19.5°C 64.4°F18.0°C 91% Calm Calm 2.0 mph3.2 kmh 30.19 in1022.4 mb 0.01 in0.3 mm 0.08 in2.0 mm 0.01 in0.3 mm
01:44 AM 66.7°F19.3°C 64.3°F17.9°C 92% Calm Calm 1.0 mph1.6 kmh 30.19 in1022.4 mb 0.03 in0.8 mm 0.15 in3.8 mm 0.03 in0.8 mm
01:52 AM 66.3°F19.1°C 64.5°F18.1°C 94% Calm Calm -- 30.19 in1022.4 mb 0.05 in1.3 mm 0.15 in3.8 mm 0.05 in1.3 mm
02:00 AM 66.2°F19.0°C 64.7°F18.2°C 95% Calm Calm -- 30.18 in1022.0 mb 0.06 in1.5 mm 0.01 in0.3 mm 0.06 in1.5 mm
02:08 AM 66.1°F18.9°C 64.6°F18.1°C 95% Calm Calm -- 30.17 in1021.7 mb 0.10 in2.5 mm 0.30 in7.6 mm 0.10 in2.5 mm
02:16 AM 66.0°F18.9°C 64.8°F18.2°C 96% Calm Calm -- 30.17 in1021.7 mb 0.12 in3.0 mm 0.15 in3.8 mm 0.12 in3.0 mm
02:24 AM 65.8°F18.8°C 64.6°F18.1°C 96% Calm Calm -- 30.16 in1021.3 mb 0.14 in3.6 mm 0.15 in3.8 mm 0.14 in3.6 mm
02:32 AM 65.8°F18.8°C 64.6°F18.1°C 96% Calm Calm -- 30.16 in1021.3 mb 0.15 in3.8 mm 0.07 in1.8 mm 0.15 in3.8 mm
02:40 AM 65.9°F18.8°C 65.0°F18.3°C 97% Calm Calm -- 30.16 in1021.3 mb 0.15 in3.8 mm 0.00 in0.0 mm 0.15 in3.8 mm
02:48 AM 66.0°F18.9°C 66.0°F18.9°C 100% Calm Calm -- 30.15 in1021.0 mb 0.14 in3.6 mm 0.00 in0.0 mm 0.15 in3.8 mm
02:56 AM 66.0°F18.9°C 66.0°F18.9°C 100% Calm Calm -- 30.15 in1021.0 mb 0.13 in3.3 mm 0.00 in0.0 mm 0.15 in3.8 mm
03:04 AM 66.0°F18.9°C 66.0°F18.9°C 100% Calm Calm -- 30.15 in1021.0 mb 0.10 in2.5 mm 0.00 in0.0 mm 0.15 in3.8 mm
03:12 AM 66.0°F18.9°C 66.0°F18.9°C 100% Calm Calm -- 30.14 in1020.7 mb 0.06 in1.5 mm 0.00 in0.0 mm 0.15 in3.8 mm
03:20 AM 66.0°F18.9°C 66.0°F18.9°C 100% Calm Calm -- 30.13 in1020.3 mb 0.05 in1.3 mm 0.00 in0.0 mm 0.15 in3.8 mm
03:28 AM 66.0°F18.9°C 66.0°F18.9°C 100% Calm Calm -- 30.13 in1020.3 mb 0.03 in0.8 mm 0.00 in0.0 mm 0.15 in3.8 mm
03:36 AM 66.0°F18.9°C 66.0°F18.9°C 100% Calm Calm -- 30.12 in1020.0 mb 0.02 in0.5 mm 0.00 in0.0 mm 0.15 in3.8 mm
03:44 AM 66.0°F18.9°C 66.0°F18.9°C 100% Calm Calm -- 30.12 in1020.0 mb 0.01 in0.3 mm 0.00 in0.0 mm 0.15 in3.8 mm
03:52 AM 66.0°F18.9°C 66.0°F18.9°C 100% Calm Calm -- 30.12 in1020.0 mb 0.00 in0.0 mm 0.00 in0.0 mm 0.15 in3.8 mm
04:00 AM 66.0°F18.9°C 66.0°F18.9°C 100% Calm Calm -- 30.11 in1019.6 mb 0.00 in0.0 mm 0.00 in0.0 mm 0.15 in3.8 mm
04:08 AM 66.0°F18.9°C 66.0°F18.9°C 100% Calm Calm -- 30.10 in1019.3 mb 0.00 in0.0 mm 0.00 in0.0 mm 0.15 in3.8 mm
04:16 AM 66.0°F18.9°C 66.0°F18.9°C 100% Calm Calm -- 30.10 in1019.3 mb 0.00 in0.0 mm 0.00 in0.0 mm 0.15 in3.8 mm
04:24 AM 66.0°F18.9°C 66.0°F18.9°C 100% Calm Calm -- 30.11 in1019.6 mb 0.00 in0.0 mm 0.00 in0.0 mm 0.15 in3.8 mm
04:32 AM 66.0°F18.9°C 66.0°F18.9°C 100% Calm Calm -- 30.11 in1019.6 mb 0.00 in0.0 mm 0.00 in0.0 mm 0.15 in3.8 mm
04:40 AM 66.0°F18.9°C 66.0°F18.9°C 100% Calm Calm -- 30.11 in1019.6 mb 0.00 in0.0 mm 0.00 in0.0 mm 0.15 in3.8 mm
04:48 AM 66.0°F18.9°C 66.0°F18.9°C 100% Calm Calm -- 30.12 in1020.0 mb 0.00 in0.0 mm 0.00 in0.0 mm 0.15 in3.8 mm
04:56 AM 66.0°F18.9°C 66.0°F18.9°C 100% Calm Calm -- 30.12 in1020.0 mb 0.00 in0.0 mm 0.00 in0.0 mm 0.15 in3.8 mm
05:04 AM 66.0°F18.9°C 66.0°F18.9°C 100% Calm Calm -- 30.11 in1019.6 mb 0.00 in0.0 mm 0.00 in0.0 mm 0.15 in3.8 mm
05:12 AM 66.0°F18.9°C 66.0°F18.9°C 100% Calm Calm -- 30.12 in1020.0 mb 0.00 in0.0 mm 0.00 in0.0 mm 0.15 in3.8 mm
05:20 AM 66.0°F18.9°C 66.0°F18.9°C 100% Calm Calm -- 30.12 in1020.0 mb 0.00 in0.0 mm 0.00 in0.0 mm 0.15 in3.8 mm
05:28 AM 66.0°F18.9°C 66.0°F18.9°C 100% Calm Calm -- 30.12 in1020.0 mb 0.00 in0.0 mm 0.00 in0.0 mm 0.15 in3.8 mm
05:36 AM 66.0°F18.9°C 66.0°F18.9°C 100% Calm Calm -- 30.13 in1020.3 mb 0.00 in0.0 mm 0.00 in0.0 mm 0.15 in3.8 mm
05:44 AM 66.0°F18.9°C 66.0°F18.9°C 100% Calm Calm -- 30.13 in1020.3 mb 0.00 in0.0 mm 0.00 in0.0 mm 0.15 in3.8 mm
05:52 AM 66.0°F18.9°C 66.0°F18.9°C 100% Calm Calm -- 30.13 in1020.3 mb 0.00 in0.0 mm 0.00 in0.0 mm 0.15 in3.8 mm
06:00 AM 66.0°F18.9°C 66.0°F18.9°C 100% Calm Calm -- 30.13 in1020.3 mb 0.00 in0.0 mm 0.00 in0.0 mm 0.15 in3.8 mm
06:08 AM 66.0°F18.9°C 66.0°F18.9°C 100% Calm Calm -- 30.14 in1020.7 mb 0.00 in0.0 mm 0.00 in0.0 mm 0.15 in3.8 mm
06:16 AM 66.0°F18.9°C 66.0°F18.9°C 100% Calm Calm -- 30.14 in1020.7 mb 0.00 in0.0 mm 0.00 in0.0 mm 0.15 in3.8 mm
06:24 AM 66.0°F18.9°C 66.0°F18.9°C 100% Calm Calm -- 30.14 in1020.7 mb 0.00 in0.0 mm 0.00 in0.0 mm 0.15 in3.8 mm
06:32 AM 66.0°F18.9°C 66.0°F18.9°C 100% Calm Calm -- 30.14 in1020.7 mb 0.00 in0.0 mm 0.00 in0.0 mm 0.15 in3.8 mm
06:40 AM 66.0°F18.9°C 66.0°F18.9°C 100% Calm Calm -- 30.15 in1021.0 mb 0.00 in0.0 mm 0.00 in0.0 mm 0.15 in3.8 mm
06:48 AM 66.0°F18.9°C 66.0°F18.9°C 100% Calm Calm -- 30.15 in1021.0 mb 0.00 in0.0 mm 0.00 in0.0 mm 0.15 in3.8 mm
06:56 AM 66.0°F18.9°C 66.0°F18.9°C 100% Calm Calm -- 30.16 in1021.3 mb 0.00 in0.0 mm 0.00 in0.0 mm 0.15 in3.8 mm
07:04 AM 66.0°F18.9°C 66.0°F18.9°C 100% Calm Calm -- 30.16 in1021.3 mb 0.00 in0.0 mm 0.00 in0.0 mm 0.15 in3.8 mm
07:12 AM 66.0°F18.9°C 66.0°F18.9°C 100% Calm Calm -- 30.16 in1021.3 mb 0.00 in0.0 mm 0.00 in0.0 mm 0.15 in3.8 mm
07:20 AM 66.0°F18.9°C 66.0°F18.9°C 100% Calm Calm -- 30.16 in1021.3 mb 0.00 in0.0 mm 0.00 in0.0 mm 0.15 in3.8 mm
07:28 AM 66.0°F18.9°C 66.0°F18.9°C 100% Calm Calm -- 30.16 in1021.3 mb 0.00 in0.0 mm 0.00 in0.0 mm 0.15 in3.8 mm
07:36 AM 66.0°F18.9°C 66.0°F18.9°C 100% Calm Calm -- 30.17 in1021.7 mb 0.00 in0.0 mm 0.00 in0.0 mm 0.15 in3.8 mm
07:44 AM 66.0°F18.9°C 66.0°F18.9°C 100% Calm Calm -- 30.17 in1021.7 mb 0.00 in0.0 mm 0.00 in0.0 mm 0.15 in3.8 mm
07:52 AM 66.0°F18.9°C 66.0°F18.9°C 100% Calm Calm -- 30.17 in1021.7 mb 0.00 in0.0 mm 0.00 in0.0 mm 0.15 in3.8 mm
08:00 AM 66.0°F18.9°C 66.0°F18.9°C 100% Calm Calm -- 30.17 in1021.7 mb 0.00 in0.0 mm 0.00 in0.0 mm 0.15 in3.8 mm
08:08 AM 66.0°F18.9°C 66.0°F18.9°C 100% Calm Calm -- 30.18 in1022.0 mb 0.00 in0.0 mm 0.00 in0.0 mm 0.15 in3.8 mm
08:16 AM 66.5°F19.2°C 66.2°F19.0°C 99% Calm Calm -- 30.18 in1022.0 mb 0.00 in0.0 mm 0.00 in0.0 mm 0.15 in3.8 mm
08:24 AM 66.8°F19.3°C 66.5°F19.2°C 99% Calm Calm -- 30.18 in1022.0 mb 0.00 in0.0 mm 0.00 in0.0 mm 0.15 in3.8 mm
08:32 AM 66.9°F19.4°C 66.6°F19.2°C 99% Calm Calm -- 30.18 in1022.0 mb 0.00 in0.0 mm 0.00 in0.0 mm 0.15 in3.8 mm
08:40 AM 66.9°F19.4°C 66.6°F19.2°C 99% Calm Calm -- 30.18 in1022.0 mb 0.00 in0.0 mm 0.00 in0.0 mm 0.15 in3.8 mm
08:48 AM 67.2°F19.6°C 66.9°F19.4°C 99% Calm Calm -- 30.18 in1022.0 mb 0.00 in0.0 mm 0.00 in0.0 mm 0.15 in3.8 mm
08:56 AM 67.7°F19.8°C 67.4°F19.7°C 99% Calm Calm -- 30.18 in1022.0 mb 0.00 in0.0 mm 0.00 in0.0 mm 0.15 in3.8 mm
09:04 AM 68.1°F20.1°C 67.8°F19.9°C 99% Calm Calm -- 30.18 in1022.0 mb 0.00 in0.0 mm 0.00 in0.0 mm 0.15 in3.8 mm
09:12 AM 68.5°F20.3°C 68.2°F20.1°C 99% Calm Calm -- 30.18 in1022.0 mb 0.00 in0.0 mm 0.00 in0.0 mm 0.15 in3.8 mm
09:20 AM 68.6°F20.3°C 68.0°F20.0°C 98% Calm Calm -- 30.18 in1022.0 mb 0.00 in0.0 mm 0.00 in0.0 mm 0.15 in3.8 mm
09:28 AM 69.2°F20.7°C 68.6°F20.3°C 98% Calm Calm -- 30.18 in1022.0 mb 0.00 in0.0 mm 0.00 in0.0 mm 0.15 in3.8 mm
09:36 AM 69.8°F21.0°C 69.2°F20.7°C 98% Calm Calm -- 30.19 in1022.4 mb 0.00 in0.0 mm 0.00 in0.0 mm 0.15 in3.8 mm
09:44 AM 70.5°F21.4°C 69.9°F21.1°C 98% Calm Calm -- 30.18 in1022.0 mb 0.00 in0.0 mm 0.00 in0.0 mm 0.15 in3.8 mm
09:52 AM 70.9°F21.6°C 70.0°F21.1°C 97% Calm Calm -- 30.19 in1022.4 mb 0.00 in0.0 mm 0.00 in0.0 mm 0.15 in3.8 mm
10:00 AM 71.9°F22.2°C 70.7°F21.5°C 96% Calm Calm -- 30.18 in1022.0 mb 0.00 in0.0 mm 0.00 in0.0 mm 0.15 in3.8 mm
10:08 AM 72.9°F22.7°C 70.4°F21.3°C 92% Calm Calm -- 30.18 in1022.0 mb 0.00 in0.0 mm 0.00 in0.0 mm 0.15 in3.8 mm
10:16 AM 74.3°F23.5°C 71.2°F21.8°C 90% Calm Calm -- 30.18 in1022.0 mb 0.00 in0.0 mm 0.00 in0.0 mm 0.15 in3.8 mm
10:24 AM 75.5°F24.2°C 70.7°F21.5°C 85% Calm Calm -- 30.18 in1022.0 mb 0.00 in0.0 mm 0.00 in0.0 mm 0.15 in3.8 mm
10:32 AM 75.8°F24.3°C 70.6°F21.4°C 84% Calm Calm -- 30.18 in1022.0 mb 0.00 in0.0 mm 0.00 in0.0 mm 0.15 in3.8 mm
10:40 AM 76.6°F24.8°C 70.7°F21.5°C 82% Calm Calm 1.0 mph1.6 kmh 30.18 in1022.0 mb 0.00 in0.0 mm 0.00 in0.0 mm 0.15 in3.8 mm
10:48 AM 76.8°F24.9°C 69.8°F21.0°C 79% Calm Calm 1.0 mph1.6 kmh 30.18 in1022.0 mb 0.00 in0.0 mm 0.00 in0.0 mm 0.15 in3.8 mm
10:56 AM 77.0°F25.0°C 69.2°F20.7°C 77% Calm Calm 1.0 mph1.6 kmh 30.18 in1022.0 mb 0.00 in0.0 mm 0.00 in0.0 mm 0.15 in3.8 mm
11:04 AM 77.9°F25.5°C 70.5°F21.4°C 78% Calm Calm -- 30.18 in1022.0 mb 0.00 in0.0 mm 0.00 in0.0 mm 0.15 in3.8 mm
11:12 AM 79.0°F26.1°C 70.8°F21.6°C 76% Calm Calm -- 30.18 in1022.0 mb 0.00 in0.0 mm 0.00 in0.0 mm 0.15 in3.8 mm
11:20 AM 79.1°F26.2°C 70.5°F21.4°C 75% Calm Calm 1.0 mph1.6 kmh 30.18 in1022.0 mb 0.00 in0.0 mm 0.00 in0.0 mm 0.15 in3.8 mm
11:28 AM 80.0°F26.7°C 72.5°F22.5°C 78% Calm Calm -- 30.18 in1022.0 mb 0.00 in0.0 mm 0.00 in0.0 mm 0.15 in3.8 mm
11:36 AM 81.8°F27.7°C 72.3°F22.4°C 73% Calm Calm -- 30.18 in1022.0 mb 0.00 in0.0 mm 0.00 in0.0 mm 0.15 in3.8 mm
11:44 AM 82.0°F27.8°C 70.8°F21.6°C 69% Calm Calm 2.0 mph3.2 kmh 30.18 in1022.0 mb 0.00 in0.0 mm 0.00 in0.0 mm 0.15 in3.8 mm
11:52 AM 82.0°F27.8°C 70.8°F21.6°C 69% Calm Calm 3.0 mph4.8 kmh 30.18 in1022.0 mb 0.00 in0.0 mm 0.00 in0.0 mm 0.15 in3.8 mm
12:00 PM 82.9°F28.3°C 70.8°F21.6°C 67% Calm Calm 1.0 mph1.6 kmh 30.18 in1022.0 mb 0.00 in0.0 mm 0.00 in0.0 mm 0.15 in3.8 mm
12:08 PM 83.8°F28.8°C 71.7°F22.1°C 67% Calm Calm -- 30.18 in1022.0 mb 0.00 in0.0 mm 0.00 in0.0 mm 0.15 in3.8 mm
12:16 PM 83.6°F28.7°C 71.5°F21.9°C 67% Calm Calm 1.0 mph1.6 kmh 30.18 in1022.0 mb 0.00 in0.0 mm 0.00 in0.0 mm 0.15 in3.8 mm
12:24 PM 83.3°F28.5°C 72.5°F22.5°C 70% Calm Calm -- 30.17 in1021.7 mb 0.00 in0.0 mm 0.00 in0.0 mm 0.15 in3.8 mm
12:32 PM 83.8°F28.8°C 72.6°F22.6°C 69% Calm Calm 1.0 mph1.6 kmh 30.17 in1021.7 mb 0.00 in0.0 mm 0.00 in0.0 mm 0.15 in3.8 mm
12:40 PM 81.9°F27.7°C 70.3°F21.3°C 68% Calm Calm 2.0 mph3.2 kmh 30.17 in1021.7 mb 0.00 in0.0 mm 0.00 in0.0 mm 0.15 in3.8 mm
12:48 PM 81.6°F27.6°C 70.5°F21.4°C 69% Calm Calm -- 30.16 in1021.3 mb 0.00 in0.0 mm 0.00 in0.0 mm 0.15 in3.8 mm
12:56 PM 82.2°F27.9°C 70.2°F21.2°C 67% Calm Calm -- 30.16 in1021.3 mb 0.00 in0.0 mm 0.00 in0.0 mm 0.15 in3.8 mm
01:04 PM 82.0°F27.8°C 70.8°F21.6°C 69% Calm Calm 1.0 mph1.6 kmh 30.16 in1021.3 mb 0.00 in0.0 mm 0.00 in0.0 mm 0.15 in3.8 mm
01:12 PM 81.7°F27.6°C 69.7°F20.9°C 67% 1.0 mph ENE1.6 kmh ENE 2.0 mph3.2 kmh 30.15 in1021.0 mb 0.00 in0.0 mm 0.00 in0.0 mm 0.15 in3.8 mm
01:20 PM 82.3°F27.9°C 70.7°F21.5°C 68% Calm Calm -- 30.15 in1021.0 mb 0.00 in0.0 mm 0.00 in0.0 mm 0.15 in3.8 mm
01:28 PM 83.6°F28.7°C 69.7°F20.9°C 63% Calm Calm 3.0 mph4.8 kmh 30.15 in1021.0 mb 0.00 in0.0 mm 0.00 in0.0 mm 0.15 in3.8 mm
01:36 PM 83.3°F28.5°C 68.9°F20.5°C 62% Calm Calm 2.0 mph3.2 kmh 30.14 in1020.7 mb 0.00 in0.0 mm 0.00 in0.0 mm 0.15 in3.8 mm
01:44 PM 84.0°F28.9°C 70.5°F21.4°C 64% Calm Calm 2.0 mph3.2 kmh 30.14 in1020.7 mb 0.00 in0.0 mm 0.00 in0.0 mm 0.15 in3.8 mm
01:52 PM 84.5°F29.2°C 71.0°F21.7°C 64% 2.0 mph E3.2 kmh E 2.0 mph3.2 kmh 30.14 in1020.7 mb 0.00 in0.0 mm 0.00 in0.0 mm 0.15 in3.8 mm
02:00 PM 83.8°F28.8°C 70.3°F21.3°C 64% 3.0 mph E4.8 kmh E 5.0 mph8.0 kmh 30.14 in1020.7 mb 0.00 in0.0 mm 0.00 in0.0 mm 0.15 in3.8 mm
02:08 PM 83.7°F28.7°C 69.3°F20.7°C 62% Calm Calm 1.0 mph1.6 kmh 30.14 in1020.7 mb 0.00 in0.0 mm 0.00 in0.0 mm 0.15 in3.8 mm
02:16 PM 84.1°F28.9°C 69.7°F20.9°C 62% Calm Calm 2.0 mph3.2 kmh 30.13 in1020.3 mb 0.00 in0.0 mm 0.00 in0.0 mm 0.15 in3.8 mm
02:24 PM 84.7°F29.3°C 70.3°F21.3°C 62% Calm Calm 3.0 mph4.8 kmh 30.13 in1020.3 mb 0.00 in0.0 mm 0.00 in0.0 mm 0.15 in3.8 mm
02:32 PM 84.3°F29.1°C 70.3°F21.3°C 63% Calm Calm -- 30.12 in1020.0 mb 0.00 in0.0 mm 0.00 in0.0 mm 0.15 in3.8 mm
02:40 PM 84.1°F28.9°C 70.2°F21.2°C 63% Calm Calm 1.0 mph1.6 kmh 30.12 in1020.0 mb 0.00 in0.0 mm 0.00 in0.0 mm 0.15 in3.8 mm
02:48 PM 84.0°F28.9°C 69.6°F20.9°C 62% Calm Calm 1.0 mph1.6 kmh 30.12 in1020.0 mb 0.00 in0.0 mm 0.00 in0.0 mm 0.15 in3.8 mm
02:56 PM 83.7°F28.7°C 70.7°F21.5°C 65% Calm Calm 2.0 mph3.2 kmh 30.11 in1019.6 mb 0.00 in0.0 mm 0.00 in0.0 mm 0.15 in3.8 mm
03:04 PM 84.3°F29.1°C 71.3°F21.8°C 65% Calm Calm -- 30.11 in1019.6 mb 0.00 in0.0 mm 0.00 in0.0 mm 0.15 in3.8 mm
03:12 PM 84.8°F29.3°C 69.9°F21.1°C 61% Calm Calm 1.0 mph1.6 kmh 30.10 in1019.3 mb 0.00 in0.0 mm 0.00 in0.0 mm 0.15 in3.8 mm
03:20 PM 84.3°F29.1°C 69.4°F20.8°C 61% Calm Calm -- 30.11 in1019.6 mb 0.00 in0.0 mm 0.00 in0.0 mm 0.15 in3.8 mm
03:28 PM 83.6°F28.7°C 69.7°F20.9°C 63% Calm Calm -- 30.11 in1019.6 mb 0.00 in0.0 mm 0.00 in0.0 mm 0.15 in3.8 mm
03:36 PM 82.1°F27.8°C 68.3°F20.2°C 63% Calm Calm 2.0 mph3.2 kmh 30.12 in1020.0 mb 0.00 in0.0 mm 0.00 in0.0 mm 0.15 in3.8 mm
03:44 PM 81.5°F27.5°C 69.1°F20.6°C 66% Calm Calm -- 30.11 in1019.6 mb 0.00 in0.0 mm 0.00 in0.0 mm 0.15 in3.8 mm
03:52 PM 78.9°F26.1°C 69.1°F20.6°C 72% 3.0 mph SSW4.8 kmh SSW 7.0 mph11.3 kmh 30.12 in1020.0 mb 0.00 in0.0 mm 0.00 in0.0 mm 0.15 in3.8 mm
04:00 PM 76.6°F24.8°C 68.9°F20.5°C 77% 2.0 mph SW3.2 kmh SW 7.0 mph11.3 kmh 30.12 in1020.0 mb 0.00 in0.0 mm 0.00 in0.0 mm 0.15 in3.8 mm
04:08 PM 75.9°F24.4°C 68.2°F20.1°C 77% Calm Calm 1.0 mph1.6 kmh 30.12 in1020.0 mb 0.00 in0.0 mm 0.00 in0.0 mm 0.15 in3.8 mm
04:16 PM 75.4°F24.1°C 68.4°F20.2°C 79% 1.0 mph SW1.6 kmh SW 5.0 mph8.0 kmh 30.12 in1020.0 mb 0.00 in0.0 mm 0.00 in0.0 mm 0.15 in3.8 mm
04:24 PM 74.7°F23.7°C 68.1°F20.1°C 80% Calm Calm 5.0 mph8.0 kmh 30.13 in1020.3 mb 0.00 in0.0 mm 0.00 in0.0 mm 0.15 in3.8 mm
04:32 PM 73.9°F23.3°C 67.4°F19.7°C 80% Calm Calm 1.0 mph1.6 kmh 30.13 in1020.3 mb 0.00 in0.0 mm 0.00 in0.0 mm 0.15 in3.8 mm
04:40 PM 73.3°F22.9°C 67.5°F19.7°C 82% Calm Calm 1.0 mph1.6 kmh 30.13 in1020.3 mb 0.00 in0.0 mm 0.00 in0.0 mm 0.15 in3.8 mm
04:48 PM 72.8°F22.7°C 67.7°F19.8°C 84% Calm Calm 1.0 mph1.6 kmh 30.13 in1020.3 mb 0.00 in0.0 mm 0.00 in0.0 mm 0.15 in3.8 mm
04:56 PM 72.3°F22.4°C 67.5°F19.7°C 85% Calm Calm -- 30.14 in1020.7 mb 0.00 in0.0 mm 0.00 in0.0 mm 0.15 in3.8 mm
05:04 PM 71.9°F22.2°C 67.5°F19.7°C 86% Calm Calm -- 30.15 in1021.0 mb 0.01 in0.3 mm 0.01 in0.3 mm 0.16 in4.1 mm
05:12 PM 71.6°F22.0°C 67.5°F19.7°C 87% Calm Calm -- 30.15 in1021.0 mb 0.01 in0.3 mm 0.00 in0.0 mm 0.16 in4.1 mm
05:20 PM 71.2°F21.8°C 67.8°F19.9°C 89% Calm Calm -- 30.14 in1020.7 mb 0.03 in0.8 mm 0.15 in3.8 mm 0.18 in4.6 mm
05:28 PM 70.6°F21.4°C 67.5°F19.7°C 90% Calm Calm -- 30.14 in1020.7 mb 0.04 in1.0 mm 0.08 in2.0 mm 0.19 in4.8 mm
05:36 PM 70.1°F21.2°C 67.7°F19.8°C 92% Calm Calm -- 30.14 in1020.7 mb 0.04 in1.0 mm 0.00 in0.0 mm 0.19 in4.8 mm
05:44 PM 70.1°F21.2°C 68.3°F20.2°C 94% Calm Calm -- 30.14 in1020.7 mb 0.06 in1.5 mm 0.15 in3.8 mm 0.21 in5.3 mm
05:52 PM 70.2°F21.2°C 68.4°F20.2°C 94% Calm Calm -- 30.14 in1020.7 mb 0.07 in1.8 mm 0.08 in2.0 mm 0.22 in5.6 mm
06:00 PM 70.3°F21.3°C 68.8°F20.4°C 95% Calm Calm -- 30.14 in1020.7 mb 0.07 in1.8 mm 0.00 in0.0 mm 0.22 in5.6 mm
06:08 PM 70.4°F21.3°C 68.9°F20.5°C 95% Calm Calm -- 30.14 in1020.7 mb 0.07 in1.8 mm 0.00 in0.0 mm 0.22 in5.6 mm
06:16 PM 70.4°F21.3°C 68.9°F20.5°C 95% Calm Calm -- 30.13 in1020.3 mb 0.07 in1.8 mm 0.00 in0.0 mm 0.22 in5.6 mm
06:24 PM 70.6°F21.4°C 69.4°F20.8°C 96% Calm Calm -- 30.13 in1020.3 mb 0.06 in1.5 mm 0.00 in0.0 mm 0.22 in5.6 mm
06:32 PM 70.7°F21.5°C 69.5°F20.8°C 96% Calm Calm 2.0 mph3.2 kmh 30.13 in1020.3 mb 0.05 in1.3 mm 0.00 in0.0 mm 0.22 in5.6 mm
06:40 PM 70.5°F21.4°C 69.0°F20.6°C 95% 2.0 mph NNE3.2 kmh NNE 3.0 mph4.8 kmh 30.13 in1020.3 mb 0.04 in1.0 mm 0.00 in0.0 mm 0.22 in5.6 mm
06:48 PM 70.2°F21.2°C 68.7°F20.4°C 95% Calm Calm -- 30.13 in1020.3 mb 0.03 in0.8 mm 0.00 in0.0 mm 0.22 in5.6 mm
06:56 PM 70.1°F21.2°C 68.6°F20.3°C 95% Calm Calm -- 30.13 in1020.3 mb 0.02 in0.5 mm 0.00 in0.0 mm 0.22 in5.6 mm
07:04 PM 69.7°F20.9°C 68.2°F20.1°C 95% Calm Calm 1.0 mph1.6 kmh 30.14 in1020.7 mb 0.01 in0.3 mm 0.00 in0.0 mm 0.22 in5.6 mm
07:12 PM 69.5°F20.8°C 68.0°F20.0°C 95% Calm Calm -- 30.14 in1020.7 mb 0.01 in0.3 mm 0.00 in0.0 mm 0.22 in5.6 mm
07:20 PM 69.6°F20.9°C 68.4°F20.2°C 96% Calm Calm -- 30.14 in1020.7 mb 0.02 in0.5 mm 0.08 in2.0 mm 0.23 in5.8 mm
07:28 PM 69.5°F20.8°C 68.0°F20.0°C 95% Calm Calm -- 30.14 in1020.7 mb 0.01 in0.3 mm 0.00 in0.0 mm 0.23 in5.8 mm
07:36 PM 69.4°F20.8°C 68.2°F20.1°C 96% Calm Calm -- 30.14 in1020.7 mb 0.01 in0.3 mm 0.00 in0.0 mm 0.23 in5.8 mm
07:44 PM 69.3°F20.7°C 68.1°F20.1°C 96% Calm Calm -- 30.13 in1020.3 mb 0.01 in0.3 mm 0.00 in0.0 mm 0.23 in5.8 mm
07:52 PM 69.1°F20.6°C 67.9°F19.9°C 96% Calm Calm -- 30.13 in1020.3 mb 0.01 in0.3 mm 0.00 in0.0 mm 0.23 in5.8 mm
08:00 PM 69.0°F20.6°C 67.8°F19.9°C 96% Calm Calm -- 30.14 in1020.7 mb 0.01 in0.3 mm 0.00 in0.0 mm 0.23 in5.8 mm
08:08 PM 69.0°F20.6°C 67.8°F19.9°C 96% Calm Calm -- 30.14 in1020.7 mb 0.01 in0.3 mm 0.00 in0.0 mm 0.23 in5.8 mm
08:16 PM 68.8°F20.4°C 67.6°F19.8°C 96% Calm Calm -- 30.15 in1021.0 mb 0.01 in0.3 mm 0.00 in0.0 mm 0.23 in5.8 mm
08:24 PM 68.7°F20.4°C 67.5°F19.7°C 96% Calm Calm -- 30.15 in1021.0 mb 0.00 in0.0 mm 0.00 in0.0 mm 0.23 in5.8 mm
08:32 PM 68.6°F20.3°C 67.7°F19.8°C 97% Calm Calm -- 30.15 in1021.0 mb 0.00 in0.0 mm 0.00 in0.0 mm 0.23 in5.8 mm
08:40 PM 68.6°F20.3°C 67.7°F19.8°C 97% Calm Calm -- 30.15 in1021.0 mb 0.00 in0.0 mm 0.00 in0.0 mm 0.23 in5.8 mm
08:48 PM 68.6°F20.3°C 67.7°F19.8°C 97% Calm Calm -- 30.15 in1021.0 mb 0.00 in0.0 mm 0.00 in0.0 mm 0.23 in5.8 mm
08:56 PM 68.6°F20.3°C 67.7°F19.8°C 97% Calm Calm -- 30.15 in1021.0 mb 0.00 in0.0 mm 0.00 in0.0 mm 0.23 in5.8 mm
09:04 PM 68.5°F20.3°C 67.6°F19.8°C 97% Calm Calm -- 30.15 in1021.0 mb 0.00 in0.0 mm 0.00 in0.0 mm 0.23 in5.8 mm
09:12 PM 68.5°F20.3°C 67.6°F19.8°C 97% Calm Calm -- 30.14 in1020.7 mb 0.00 in0.0 mm 0.00 in0.0 mm 0.23 in5.8 mm
09:20 PM 68.4°F20.2°C 67.5°F19.7°C 97% Calm Calm -- 30.15 in1021.0 mb 0.00 in0.0 mm 0.00 in0.0 mm 0.23 in5.8 mm
09:28 PM 68.3°F20.2°C 67.4°F19.7°C 97% Calm Calm -- 30.15 in1021.0 mb 0.00 in0.0 mm 0.00 in0.0 mm 0.23 in5.8 mm
09:36 PM 68.4°F20.2°C 67.5°F19.7°C 97% Calm Calm -- 30.15 in1021.0 mb 0.00 in0.0 mm 0.00 in0.0 mm 0.23 in5.8 mm
09:44 PM 68.4°F20.2°C 67.8°F19.9°C 98% Calm Calm -- 30.16 in1021.3 mb 0.00 in0.0 mm 0.00 in0.0 mm 0.23 in5.8 mm
09:52 PM 68.4°F20.2°C 67.8°F19.9°C 98% Calm Calm -- 30.16 in1021.3 mb 0.00 in0.0 mm 0.00 in0.0 mm 0.23 in5.8 mm
10:00 PM 68.4°F20.2°C 67.8°F19.9°C 98% Calm Calm -- 30.16 in1021.3 mb 0.00 in0.0 mm 0.00 in0.0 mm 0.23 in5.8 mm
10:08 PM 68.4°F20.2°C 67.8°F19.9°C 98% Calm Calm -- 30.17 in1021.7 mb 0.00 in0.0 mm 0.00 in0.0 mm 0.23 in5.8 mm
10:16 PM 68.5°F20.3°C 67.9°F19.9°C 98% Calm Calm -- 30.17 in1021.7 mb 0.00 in0.0 mm 0.00 in0.0 mm 0.23 in5.8 mm
10:24 PM 68.4°F20.2°C 67.8°F19.9°C 98% Calm Calm -- 30.17 in1021.7 mb 0.00 in0.0 mm 0.00 in0.0 mm 0.23 in5.8 mm
10:32 PM 68.3°F20.2°C 67.7°F19.8°C 98% Calm Calm -- 30.18 in1022.0 mb 0.00 in0.0 mm 0.00 in0.0 mm 0.23 in5.8 mm
10:40 PM 68.4°F20.2°C 67.8°F19.9°C 98% Calm Calm -- 30.18 in1022.0 mb 0.00 in0.0 mm 0.00 in0.0 mm 0.23 in5.8 mm
10:48 PM 68.4°F20.2°C 67.8°F19.9°C 98% Calm Calm -- 30.18 in1022.0 mb 0.00 in0.0 mm 0.00 in0.0 mm 0.23 in5.8 mm
10:56 PM 68.4°F20.2°C 67.8°F19.9°C 98% Calm Calm -- 30.18 in1022.0 mb 0.00 in0.0 mm 0.00 in0.0 mm 0.23 in5.8 mm
11:04 PM 68.5°F20.3°C 67.9°F19.9°C 98% Calm Calm -- 30.18 in1022.0 mb 0.00 in0.0 mm 0.00 in0.0 mm 0.23 in5.8 mm
11:12 PM 68.5°F20.3°C 67.9°F19.9°C 98% Calm Calm -- 30.18 in1022.0 mb 0.00 in0.0 mm 0.00 in0.0 mm 0.23 in5.8 mm
11:20 PM 68.4°F20.2°C 67.8°F19.9°C 98% Calm Calm -- 30.18 in1022.0 mb 0.00 in0.0 mm 0.00 in0.0 mm 0.23 in5.8 mm
11:28 PM 68.4°F20.2°C 67.8°F19.9°C 98% Calm Calm -- 30.17 in1021.7 mb 0.00 in0.0 mm 0.00 in0.0 mm 0.23 in5.8 mm
11:36 PM 68.3°F20.2°C 67.7°F19.8°C 98% Calm Calm -- 30.17 in1021.7 mb 0.00 in0.0 mm 0.00 in0.0 mm 0.23 in5.8 mm
11:44 PM 68.3°F20.2°C 67.7°F19.8°C 98% Calm Calm -- 30.17 in1021.7 mb 0.00 in0.0 mm 0.00 in0.0 mm 0.23 in5.8 mm
11:52 PM 68.3°F20.2°C 67.7°F19.8°C 98% Calm Calm -- 30.17 in1021.7 mb 0.00 in0.0 mm 0.00 in0.0 mm 0.23 in5.8 mm